VTSH  Songkhla Airport

Add Bookmark

Thailand

Status IATA
Operational SGZ
Latitude Longitude
7° 11' 11" N 100° 36' 28" E
7.186560 100.608002
Local (DST + 7) UTC (GMT + 7)
Sep 30, 2014 05:07 Sep 30, 2014 10:07
Sunrise-Sunset Local UTC
Begin Civil Twilight 05:43 22:43
Sunrise 06:04 23:04
Sunset 06:10 11:10
End Civil Twilight 06:31 11:31

Current Weather

METAR Observed VFR
VTSH 300600Z 07002KT 9999 FEW020CB BKN300 32/24 Q1009 A2980 CB S Tue, Sep 30, 2014 @ 06:00 UTC
(4 Hours, 7 Minutes ago)
Visual Flight Rules
Wind Visibility Clouds Conditions
070° at 2 knots (4 kph) 10 km or more
  • Few at 2,000' AGL
  • Broken at 30,000' AGL
  • No significant weather
Temperatures Readings Precipitation
Current Temp 32°C (90°F)
Dewpoint 24°C (75°F)
Heat Index 38°C (101°F)
Humidity 63%
Altimeter 29.79"Hg
Sea Level Pressure 1009mb
Field Elevation 16.4'
None Recorded

Additional weather within a 92.6km radius of VTSH

Map ICAO Location
VTSS 36.9km S (220°)

24 Hour Weather History

Loading
-

24 Hour Weather Graphs

Loading
-

CheckWX.com is intended as a tool to help pilots better visualize weather data. It is not intended as a substitute for an official weather briefing obtained from a Flight Service Station. CheckWX.com does not meet the FAA requirements for an official pre-flight weather briefing. Therefore, it's important that pilots still call and obtain an official FSS pre-flight weather briefing.